sensor_id;sensor_type;location;lat;lon;timestamp;P1;durP1;ratioP1;P2;durP2;ratioP2
9888;SDS011;4983;42.112;24.738;2023-09-18T00:02:19;2.93;;;2.47;;
9888;SDS011;4983;42.112;24.738;2023-09-18T00:04:46;4.13;;;3.07;;
9888;SDS011;4983;42.112;24.738;2023-09-18T00:07:15;5.33;;;2.70;;
9888;SDS011;4983;42.112;24.738;2023-09-18T00:09:42;4.80;;;2.80;;
9888;SDS011;4983;42.112;24.738;2023-09-18T00:12:09;22.03;;;5.43;;
9888;SDS011;4983;42.112;24.738;2023-09-18T00:14:36;13.73;;;4.57;;
9888;SDS011;4983;42.112;24.738;2023-09-18T00:17:03;13.33;;;4.57;;
9888;SDS011;4983;42.112;24.738;2023-09-18T00:19:30;14.70;;;4.27;;
9888;SDS011;4983;42.112;24.738;2023-09-18T00:21:58;4.43;;;3.20;;
9888;SDS011;4983;42.112;24.738;2023-09-18T00:24:28;7.20;;;2.63;;
9888;SDS011;4983;42.112;24.738;2023-09-18T00:26:55;3.00;;;2.70;;
9888;SDS011;4983;42.112;24.738;2023-09-18T00:29:23;6.57;;;3.17;;
9888;SDS011;4983;42.112;24.738;2023-09-18T00:31:50;3.03;;;2.60;;
9888;SDS011;4983;42.112;24.738;2023-09-18T00:34:18;5.33;;;3.10;;
9888;SDS011;4983;42.112;24.738;2023-09-18T00:36:45;6.87;;;3.10;;
9888;SDS011;4983;42.112;24.738;2023-09-18T00:39:12;3.77;;;2.83;;
9888;SDS011;4983;42.112;24.738;2023-09-18T00:41:41;4.63;;;2.90;;
9888;SDS011;4983;42.112;24.738;2023-09-18T00:44:08;5.37;;;2.90;;
9888;SDS011;4983;42.112;24.738;2023-09-18T00:46:35;4.37;;;3.00;;
9888;SDS011;4983;42.112;24.738;2023-09-18T00:49:02;4.43;;;2.80;;
9888;SDS011;4983;42.112;24.738;2023-09-18T00:51:29;4.80;;;2.70;;
9888;SDS011;4983;42.112;24.738;2023-09-18T00:53:56;5.47;;;3.03;;
9888;SDS011;4983;42.112;24.738;2023-09-18T00:56:24;5.70;;;2.93;;
9888;SDS011;4983;42.112;24.738;2023-09-18T00:58:52;4.47;;;2.77;;
9888;SDS011;4983;42.112;24.738;2023-09-18T01:01:20;5.50;;;2.70;;
9888;SDS011;4983;42.112;24.738;2023-09-18T01:03:48;3.87;;;2.67;;
9888;SDS011;4983;42.112;24.738;2023-09-18T01:06:16;5.83;;;2.87;;
9888;SDS011;4983;42.112;24.738;2023-09-18T01:08:46;4.53;;;2.90;;
9888;SDS011;4983;42.112;24.738;2023-09-18T01:11:20;5.90;;;3.03;;
9888;SDS011;4983;42.112;24.738;2023-09-18T01:14:02;3.43;;;2.90;;
9888;SDS011;4983;42.112;24.738;2023-09-18T01:16:42;4.73;;;3.00;;
9888;SDS011;4983;42.112;24.738;2023-09-18T01:19:15;4.57;;;2.80;;
9888;SDS011;4983;42.112;24.738;2023-09-18T01:21:44;5.47;;;2.90;;
9888;SDS011;4983;42.112;24.738;2023-09-18T01:24:13;3.73;;;2.70;;
9888;SDS011;4983;42.112;24.738;2023-09-18T01:26:40;3.03;;;2.70;;
9888;SDS011;4983;42.112;24.738;2023-09-18T01:29:07;5.97;;;2.93;;
9888;SDS011;4983;42.112;24.738;2023-09-18T01:31:33;4.10;;;3.20;;
9888;SDS011;4983;42.112;24.738;2023-09-18T01:34:00;4.13;;;2.67;;
9888;SDS011;4983;42.112;24.738;2023-09-18T01:36:28;3.30;;;2.90;;
9888;SDS011;4983;42.112;24.738;2023-09-18T01:38:55;5.00;;;3.00;;
9888;SDS011;4983;42.112;24.738;2023-09-18T01:41:24;6.13;;;3.00;;
9888;SDS011;4983;42.112;24.738;2023-09-18T01:43:51;6.10;;;3.10;;
9888;SDS011;4983;42.112;24.738;2023-09-18T01:46:18;4.63;;;2.57;;
9888;SDS011;4983;42.112;24.738;2023-09-18T01:48:46;4.57;;;2.87;;
9888;SDS011;4983;42.112;24.738;2023-09-18T01:51:14;5.57;;;2.90;;
9888;SDS011;4983;42.112;24.738;2023-09-18T01:53:41;6.20;;;2.83;;
9888;SDS011;4983;42.112;24.738;2023-09-18T01:56:08;3.77;;;2.60;;
9888;SDS011;4983;42.112;24.738;2023-09-18T01:58:37;5.13;;;3.07;;
9888;SDS011;4983;42.112;24.738;2023-09-18T02:01:04;4.20;;;2.63;;
9888;SDS011;4983;42.112;24.738;2023-09-18T02:03:31;4.07;;;2.70;;
9888;SDS011;4983;42.112;24.738;2023-09-18T02:05:57;4.37;;;2.90;;
9888;SDS011;4983;42.112;24.738;2023-09-18T02:08:24;5.10;;;3.03;;
9888;SDS011;4983;42.112;24.738;2023-09-18T02:10:51;5.27;;;3.00;;
9888;SDS011;4983;42.112;24.738;2023-09-18T02:13:18;3.60;;;2.70;;
9888;SDS011;4983;42.112;24.738;2023-09-18T02:15:46;6.17;;;2.80;;
9888;SDS011;4983;42.112;24.738;2023-09-18T02:18:13;4.70;;;2.70;;
9888;SDS011;4983;42.112;24.738;2023-09-18T02:20:41;3.40;;;2.27;;
9888;SDS011;4983;42.112;24.738;2023-09-18T02:23:09;4.87;;;3.10;;
9888;SDS011;4983;42.112;24.738;2023-09-18T02:25:36;4.37;;;2.53;;
9888;SDS011;4983;42.112;24.738;2023-09-18T02:28:04;7.97;;;3.00;;
9888;SDS011;4983;42.112;24.738;2023-09-18T02:30:31;4.63;;;2.83;;
9888;SDS011;4983;42.112;24.738;2023-09-18T02:33:00;3.63;;;2.30;;
9888;SDS011;4983;42.112;24.738;2023-09-18T02:35:28;3.67;;;3.10;;
9888;SDS011;4983;42.112;24.738;2023-09-18T02:37:55;5.30;;;2.73;;
9888;SDS011;4983;42.112;24.738;2023-09-18T02:40:22;4.37;;;3.13;;
9888;SDS011;4983;42.112;24.738;2023-09-18T02:42:49;4.37;;;2.93;;
9888;SDS011;4983;42.112;24.738;2023-09-18T02:45:16;6.03;;;2.67;;
9888;SDS011;4983;42.112;24.738;2023-09-18T02:47:43;4.20;;;2.67;;
9888;SDS011;4983;42.112;24.738;2023-09-18T02:50:11;5.27;;;2.63;;
9888;SDS011;4983;42.112;24.738;2023-09-18T02:52:38;3.90;;;2.80;;
9888;SDS011;4983;42.112;24.738;2023-09-18T02:55:05;4.47;;;2.90;;
9888;SDS011;4983;42.112;24.738;2023-09-18T02:57:35;4.50;;;3.00;;
9888;SDS011;4983;42.112;24.738;2023-09-18T03:00:03;3.73;;;2.70;;
9888;SDS011;4983;42.112;24.738;2023-09-18T03:02:31;4.40;;;2.73;;
9888;SDS011;4983;42.112;24.738;2023-09-18T03:04:58;7.60;;;2.67;;
9888;SDS011;4983;42.112;24.738;2023-09-18T03:07:26;3.87;;;2.63;;
9888;SDS011;4983;42.112;24.738;2023-09-18T03:09:54;4.63;;;2.70;;
9888;SDS011;4983;42.112;24.738;2023-09-18T03:12:23;3.37;;;2.60;;
9888;SDS011;4983;42.112;24.738;2023-09-18T03:14:50;5.50;;;3.10;;
9888;SDS011;4983;42.112;24.738;2023-09-18T03:17:17;3.43;;;2.57;;
9888;SDS011;4983;42.112;24.738;2023-09-18T03:19:47;3.27;;;2.50;;
9888;SDS011;4983;42.112;24.738;2023-09-18T03:22:14;4.83;;;2.43;;
9888;SDS011;4983;42.112;24.738;2023-09-18T03:24:42;6.17;;;2.80;;
9888;SDS011;4983;42.112;24.738;2023-09-18T03:27:10;9.43;;;2.60;;
9888;SDS011;4983;42.112;24.738;2023-09-18T03:29:37;3.23;;;2.93;;
9888;SDS011;4983;42.112;24.738;2023-09-18T03:32:04;4.63;;;3.10;;
9888;SDS011;4983;42.112;24.738;2023-09-18T03:34:31;4.67;;;3.10;;
9888;SDS011;4983;42.112;24.738;2023-09-18T03:36:58;3.67;;;2.87;;
9888;SDS011;4983;42.112;24.738;2023-09-18T03:39:25;3.80;;;2.93;;
9888;SDS011;4983;42.112;24.738;2023-09-18T03:41:53;5.87;;;3.03;;
9888;SDS011;4983;42.112;24.738;2023-09-18T03:44:20;5.40;;;3.10;;
9888;SDS011;4983;42.112;24.738;2023-09-18T03:46:48;4.33;;;2.70;;
9888;SDS011;4983;42.112;24.738;2023-09-18T03:49:14;7.40;;;2.90;;
9888;SDS011;4983;42.112;24.738;2023-09-18T03:51:41;2.77;;;2.40;;
9888;SDS011;4983;42.112;24.738;2023-09-18T03:54:09;4.70;;;2.90;;
9888;SDS011;4983;42.112;24.738;2023-09-18T03:56:36;5.90;;;2.77;;
9888;SDS011;4983;42.112;24.738;2023-09-18T03:59:05;3.43;;;3.13;;
9888;SDS011;4983;42.112;24.738;2023-09-18T04:01:32;4.50;;;3.07;;
9888;SDS011;4983;42.112;24.738;2023-09-18T04:03:59;4.27;;;3.07;;
9888;SDS011;4983;42.112;24.738;2023-09-18T04:06:35;4.43;;;3.00;;
9888;SDS011;4983;42.112;24.738;2023-09-18T04:09:02;8.00;;;3.50;;
9888;SDS011;4983;42.112;24.738;2023-09-18T04:11:29;4.80;;;3.17;;
9888;SDS011;4983;42.112;24.738;2023-09-18T04:13:59;4.97;;;3.17;;
9888;SDS011;4983;42.112;24.738;2023-09-18T04:16:28;6.33;;;3.40;;
9888;SDS011;4983;42.112;24.738;2023-09-18T04:18:56;5.43;;;3.17;;
9888;SDS011;4983;42.112;24.738;2023-09-18T04:21:23;5.53;;;3.13;;
9888;SDS011;4983;42.112;24.738;2023-09-18T04:23:50;3.70;;;3.07;;
9888;SDS011;4983;42.112;24.738;2023-09-18T04:26:22;6.93;;;3.30;;
9888;SDS011;4983;42.112;24.738;2023-09-18T04:28:49;4.60;;;3.87;;
9888;SDS011;4983;42.112;24.738;2023-09-18T04:31:16;8.20;;;3.23;;
9888;SDS011;4983;42.112;24.738;2023-09-18T04:33:44;3.40;;;3.10;;
9888;SDS011;4983;42.112;24.738;2023-09-18T04:36:11;7.60;;;3.53;;
9888;SDS011;4983;42.112;24.738;2023-09-18T04:38:38;6.47;;;3.33;;
9888;SDS011;4983;42.112;24.738;2023-09-18T04:41:05;6.30;;;3.33;;
9888;SDS011;4983;42.112;24.738;2023-09-18T04:43:33;5.63;;;3.10;;
9888;SDS011;4983;42.112;24.738;2023-09-18T04:46:00;10.50;;;4.10;;
9888;SDS011;4983;42.112;24.738;2023-09-18T04:48:28;7.60;;;4.10;;
9888;SDS011;4983;42.112;24.738;2023-09-18T04:50:56;8.07;;;3.90;;
9888;SDS011;4983;42.112;24.738;2023-09-18T04:53:23;8.00;;;4.30;;
9888;SDS011;4983;42.112;24.738;2023-09-18T04:55:51;4.33;;;3.67;;
9888;SDS011;4983;42.112;24.738;2023-09-18T04:58:18;6.17;;;3.67;;
9888;SDS011;4983;42.112;24.738;2023-09-18T05:00:45;9.57;;;3.70;;
9888;SDS011;4983;42.112;24.738;2023-09-18T05:03:13;10.13;;;4.10;;
9888;SDS011;4983;42.112;24.738;2023-09-18T05:05:40;8.77;;;4.00;;
9888;SDS011;4983;42.112;24.738;2023-09-18T05:08:08;5.80;;;3.30;;
9888;SDS011;4983;42.112;24.738;2023-09-18T05:10:35;12.37;;;4.23;;
9888;SDS011;4983;42.112;24.738;2023-09-18T05:13:03;22.67;;;5.07;;
9888;SDS011;4983;42.112;24.738;2023-09-18T05:15:30;11.20;;;4.17;;
9888;SDS011;4983;42.112;24.738;2023-09-18T05:17:58;6.30;;;3.60;;
9888;SDS011;4983;42.112;24.738;2023-09-18T05:20:26;10.57;;;4.17;;
9888;SDS011;4983;42.112;24.738;2023-09-18T05:22:55;9.63;;;4.40;;
9888;SDS011;4983;42.112;24.738;2023-09-18T05:25:24;9.77;;;4.03;;
9888;SDS011;4983;42.112;24.738;2023-09-18T05:27:53;6.23;;;3.83;;
9888;SDS011;4983;42.112;24.738;2023-09-18T05:30:23;10.50;;;4.10;;
9888;SDS011;4983;42.112;24.738;2023-09-18T05:32:53;6.17;;;3.50;;
9888;SDS011;4983;42.112;24.738;2023-09-18T05:35:20;4.63;;;3.63;;
9888;SDS011;4983;42.112;24.738;2023-09-18T05:37:48;9.37;;;3.60;;
9888;SDS011;4983;42.112;24.738;2023-09-18T05:40:17;6.60;;;4.17;;
9888;SDS011;4983;42.112;24.738;2023-09-18T05:42:46;14.40;;;4.40;;
9888;SDS011;4983;42.112;24.738;2023-09-18T05:45:13;4.53;;;2.87;;
9888;SDS011;4983;42.112;24.738;2023-09-18T05:47:41;9.43;;;3.50;;
9888;SDS011;4983;42.112;24.738;2023-09-18T05:50:10;5.73;;;2.47;;
9888;SDS011;4983;42.112;24.738;2023-09-18T05:52:41;5.87;;;2.63;;
9888;SDS011;4983;42.112;24.738;2023-09-18T05:55:09;4.77;;;2.30;;
9888;SDS011;4983;42.112;24.738;2023-09-18T05:57:36;4.60;;;2.47;;
9888;SDS011;4983;42.112;24.738;2023-09-18T06:00:05;9.57;;;2.60;;
9888;SDS011;4983;42.112;24.738;2023-09-18T06:02:33;3.13;;;2.53;;
9888;SDS011;4983;42.112;24.738;2023-09-18T06:05:00;4.97;;;2.60;;
9888;SDS011;4983;42.112;24.738;2023-09-18T06:07:28;8.37;;;3.00;;
9888;SDS011;4983;42.112;24.738;2023-09-18T06:09:56;7.57;;;2.63;;
9888;SDS011;4983;42.112;24.738;2023-09-18T06:12:23;7.43;;;2.80;;
9888;SDS011;4983;42.112;24.738;2023-09-18T06:14:51;4.77;;;2.57;;
9888;SDS011;4983;42.112;24.738;2023-09-18T06:17:20;4.87;;;2.43;;
9888;SDS011;4983;42.112;24.738;2023-09-18T06:19:47;4.90;;;2.50;;
9888;SDS011;4983;42.112;24.738;2023-09-18T06:22:14;3.90;;;2.70;;
9888;SDS011;4983;42.112;24.738;2023-09-18T06:24:41;9.00;;;2.70;;
9888;SDS011;4983;42.112;24.738;2023-09-18T06:27:08;5.73;;;2.37;;
9888;SDS011;4983;42.112;24.738;2023-09-18T06:29:36;19.70;;;4.10;;
9888;SDS011;4983;42.112;24.738;2023-09-18T06:32:05;8.13;;;2.97;;
9888;SDS011;4983;42.112;24.738;2023-09-18T06:34:34;12.80;;;3.43;;
9888;SDS011;4983;42.112;24.738;2023-09-18T06:37:01;4.00;;;2.57;;
9888;SDS011;4983;42.112;24.738;2023-09-18T06:39:29;3.23;;;2.50;;
9888;SDS011;4983;42.112;24.738;2023-09-18T06:41:56;8.30;;;2.67;;
9888;SDS011;4983;42.112;24.738;2023-09-18T06:44:23;5.73;;;2.70;;
9888;SDS011;4983;42.112;24.738;2023-09-18T06:46:50;8.27;;;2.80;;
9888;SDS011;4983;42.112;24.738;2023-09-18T06:49:18;5.23;;;2.50;;
9888;SDS011;4983;42.112;24.738;2023-09-18T06:51:47;11.17;;;3.20;;
9888;SDS011;4983;42.112;24.738;2023-09-18T06:54:14;3.77;;;2.50;;
9888;SDS011;4983;42.112;24.738;2023-09-18T06:56:41;3.37;;;2.40;;
9888;SDS011;4983;42.112;24.738;2023-09-18T06:59:09;8.43;;;2.77;;
9888;SDS011;4983;42.112;24.738;2023-09-18T07:01:37;3.00;;;2.30;;
9888;SDS011;4983;42.112;24.738;2023-09-18T07:04:04;2.90;;;2.37;;
9888;SDS011;4983;42.112;24.738;2023-09-18T07:06:31;7.80;;;2.57;;
9888;SDS011;4983;42.112;24.738;2023-09-18T07:09:00;19.17;;;3.87;;
9888;SDS011;4983;42.112;24.738;2023-09-18T07:11:28;3.40;;;2.27;;
9888;SDS011;4983;42.112;24.738;2023-09-18T07:13:56;7.53;;;2.50;;
9888;SDS011;4983;42.112;24.738;2023-09-18T07:16:24;7.50;;;2.67;;
9888;SDS011;4983;42.112;24.738;2023-09-18T07:18:51;2.30;;;2.10;;
9888;SDS011;4983;42.112;24.738;2023-09-18T07:21:18;2.70;;;2.10;;
9888;SDS011;4983;42.112;24.738;2023-09-18T07:23:45;5.57;;;2.47;;
9888;SDS011;4983;42.112;24.738;2023-09-18T07:26:14;3.67;;;2.20;;
9888;SDS011;4983;42.112;24.738;2023-09-18T07:28:41;5.30;;;2.10;;
9888;SDS011;4983;42.112;24.738;2023-09-18T07:31:11;3.20;;;2.07;;
9888;SDS011;4983;42.112;24.738;2023-09-18T07:33:39;8.87;;;2.40;;
9888;SDS011;4983;42.112;24.738;2023-09-18T07:36:08;3.60;;;2.10;;
9888;SDS011;4983;42.112;24.738;2023-09-18T07:38:35;7.50;;;2.83;;
9888;SDS011;4983;42.112;24.738;2023-09-18T07:41:03;4.13;;;2.50;;
9888;SDS011;4983;42.112;24.738;2023-09-18T07:43:31;6.17;;;2.90;;
9888;SDS011;4983;42.112;24.738;2023-09-18T07:45:58;4.67;;;2.67;;
9888;SDS011;4983;42.112;24.738;2023-09-18T07:48:27;6.73;;;2.60;;
9888;SDS011;4983;42.112;24.738;2023-09-18T07:50:54;3.50;;;2.57;;
9888;SDS011;4983;42.112;24.738;2023-09-18T07:53:21;11.80;;;3.00;;
9888;SDS011;4983;42.112;24.738;2023-09-18T07:55:48;4.90;;;2.47;;
9888;SDS011;4983;42.112;24.738;2023-09-18T07:58:15;3.57;;;2.40;;
9888;SDS011;4983;42.112;24.738;2023-09-18T08:00:44;4.37;;;2.37;;
9888;SDS011;4983;42.112;24.738;2023-09-18T08:03:11;2.73;;;2.13;;
9888;SDS011;4983;42.112;24.738;2023-09-18T08:05:38;4.03;;;2.57;;
9888;SDS011;4983;42.112;24.738;2023-09-18T08:08:06;7.03;;;2.93;;
9888;SDS011;4983;42.112;24.738;2023-09-18T08:10:36;3.43;;;2.70;;
9888;SDS011;4983;42.112;24.738;2023-09-18T08:13:03;3.10;;;2.73;;
9888;SDS011;4983;42.112;24.738;2023-09-18T08:15:30;7.07;;;2.80;;
9888;SDS011;4983;42.112;24.738;2023-09-18T08:17:59;5.37;;;2.77;;
9888;SDS011;4983;42.112;24.738;2023-09-18T08:20:26;3.40;;;2.40;;
9888;SDS011;4983;42.112;24.738;2023-09-18T08:22:54;6.40;;;2.80;;
9888;SDS011;4983;42.112;24.738;2023-09-18T08:25:22;8.83;;;3.17;;
9888;SDS011;4983;42.112;24.738;2023-09-18T08:27:49;4.30;;;2.53;;
9888;SDS011;4983;42.112;24.738;2023-09-18T08:30:16;5.37;;;2.50;;
9888;SDS011;4983;42.112;24.738;2023-09-18T08:32:47;3.60;;;2.70;;
9888;SDS011;4983;42.112;24.738;2023-09-18T08:35:16;3.50;;;2.43;;
9888;SDS011;4983;42.112;24.738;2023-09-18T08:37:43;3.83;;;2.63;;
9888;SDS011;4983;42.112;24.738;2023-09-18T08:40:10;4.60;;;2.43;;
9888;SDS011;4983;42.112;24.738;2023-09-18T08:42:39;6.13;;;2.50;;
9888;SDS011;4983;42.112;24.738;2023-09-18T08:45:10;4.27;;;2.30;;
9888;SDS011;4983;42.112;24.738;2023-09-18T08:47:41;4.60;;;2.77;;
9888;SDS011;4983;42.112;24.738;2023-09-18T08:50:09;3.00;;;2.17;;
9888;SDS011;4983;42.112;24.738;2023-09-18T08:52:38;6.13;;;2.50;;
9888;SDS011;4983;42.112;24.738;2023-09-18T08:55:07;9.03;;;2.93;;
9888;SDS011;4983;42.112;24.738;2023-09-18T08:57:36;2.53;;;2.33;;
9888;SDS011;4983;42.112;24.738;2023-09-18T09:00:05;6.37;;;2.50;;
9888;SDS011;4983;42.112;24.738;2023-09-18T09:02:33;4.23;;;2.57;;
9888;SDS011;4983;42.112;24.738;2023-09-18T09:05:00;6.33;;;3.07;;
9888;SDS011;4983;42.112;24.738;2023-09-18T09:07:27;3.07;;;2.47;;
9888;SDS011;4983;42.112;24.738;2023-09-18T09:09:57;4.07;;;2.27;;
9888;SDS011;4983;42.112;24.738;2023-09-18T09:15:15;2.70;;;1.97;;
9888;SDS011;4983;42.112;24.738;2023-09-18T09:17:42;4.43;;;2.17;;
9888;SDS011;4983;42.112;24.738;2023-09-18T09:20:11;2.97;;;2.07;;
9888;SDS011;4983;42.112;24.738;2023-09-18T09:22:39;5.87;;;2.30;;
9888;SDS011;4983;42.112;24.738;2023-09-18T09:27:53;2.57;;;2.23;;
9888;SDS011;4983;42.112;24.738;2023-09-18T09:30:21;5.97;;;2.37;;
9888;SDS011;4983;42.112;24.738;2023-09-18T09:32:50;6.87;;;2.63;;
9888;SDS011;4983;42.112;24.738;2023-09-18T09:35:22;5.50;;;2.47;;
9888;SDS011;4983;42.112;24.738;2023-09-18T09:37:52;2.87;;;2.13;;
9888;SDS011;4983;42.112;24.738;2023-09-18T09:40:21;11.63;;;2.93;;
9888;SDS011;4983;42.112;24.738;2023-09-18T09:42:52;4.00;;;2.50;;
9888;SDS011;4983;42.112;24.738;2023-09-18T09:45:25;5.23;;;2.60;;
9888;SDS011;4983;42.112;24.738;2023-09-18T09:47:54;7.80;;;2.60;;
9888;SDS011;4983;42.112;24.738;2023-09-18T09:50:21;5.63;;;2.40;;
9888;SDS011;4983;42.112;24.738;2023-09-18T09:52:52;6.10;;;2.50;;
9888;SDS011;4983;42.112;24.738;2023-09-18T09:55:22;9.57;;;3.00;;
9888;SDS011;4983;42.112;24.738;2023-09-18T09:57:53;4.17;;;2.13;;
9888;SDS011;4983;42.112;24.738;2023-09-18T10:00:23;9.43;;;2.97;;
9888;SDS011;4983;42.112;24.738;2023-09-18T10:02:56;4.20;;;2.33;;
9888;SDS011;4983;42.112;24.738;2023-09-18T10:05:26;2.90;;;2.40;;
9888;SDS011;4983;42.112;24.738;2023-09-18T10:07:56;6.27;;;2.60;;
9888;SDS011;4983;42.112;24.738;2023-09-18T10:10:26;3.17;;;2.20;;
9888;SDS011;4983;42.112;24.738;2023-09-18T10:12:59;16.57;;;2.90;;
9888;SDS011;4983;42.112;24.738;2023-09-18T10:15:29;3.60;;;2.10;;
9888;SDS011;4983;42.112;24.738;2023-09-18T10:18:05;3.10;;;2.23;;
9888;SDS011;4983;42.112;24.738;2023-09-18T10:20:39;4.33;;;2.40;;
9888;SDS011;4983;42.112;24.738;2023-09-18T10:23:13;3.47;;;2.33;;
9888;SDS011;4983;42.112;24.738;2023-09-18T10:25:51;3.73;;;2.60;;
9888;SDS011;4983;42.112;24.738;2023-09-18T10:28:24;3.73;;;2.37;;
9888;SDS011;4983;42.112;24.738;2023-09-18T10:30:55;3.43;;;2.40;;
9888;SDS011;4983;42.112;24.738;2023-09-18T10:33:25;3.93;;;2.20;;
9888;SDS011;4983;42.112;24.738;2023-09-18T10:35:53;2.10;;;1.90;;
9888;SDS011;4983;42.112;24.738;2023-09-18T10:38:22;3.70;;;2.00;;
9888;SDS011;4983;42.112;24.738;2023-09-18T10:40:51;3.03;;;2.30;;
9888;SDS011;4983;42.112;24.738;2023-09-18T10:43:20;3.53;;;2.03;;
9888;SDS011;4983;42.112;24.738;2023-09-18T10:45:48;2.90;;;2.20;;
9888;SDS011;4983;42.112;24.738;2023-09-18T10:48:17;7.60;;;2.63;;
9888;SDS011;4983;42.112;24.738;2023-09-18T10:50:45;4.00;;;2.40;;
9888;SDS011;4983;42.112;24.738;2023-09-18T10:53:12;2.93;;;2.00;;
9888;SDS011;4983;42.112;24.738;2023-09-18T10:55:40;8.13;;;2.53;;
9888;SDS011;4983;42.112;24.738;2023-09-18T10:58:08;2.73;;;2.00;;
9888;SDS011;4983;42.112;24.738;2023-09-18T11:00:35;2.23;;;2.03;;
9888;SDS011;4983;42.112;24.738;2023-09-18T11:03:11;3.93;;;2.40;;
9888;SDS011;4983;42.112;24.738;2023-09-18T11:05:43;3.93;;;2.10;;
9888;SDS011;4983;42.112;24.738;2023-09-18T11:08:23;3.10;;;1.90;;
9888;SDS011;4983;42.112;24.738;2023-09-18T11:10:54;3.50;;;2.10;;
9888;SDS011;4983;42.112;24.738;2023-09-18T11:13:27;3.03;;;2.10;;
9888;SDS011;4983;42.112;24.738;2023-09-18T11:15:58;3.97;;;2.13;;
9888;SDS011;4983;42.112;24.738;2023-09-18T11:18:36;2.60;;;2.00;;
9888;SDS011;4983;42.112;24.738;2023-09-18T11:21:07;3.77;;;2.10;;
9888;SDS011;4983;42.112;24.738;2023-09-18T11:23:35;3.63;;;2.20;;
9888;SDS011;4983;42.112;24.738;2023-09-18T11:26:04;3.00;;;2.10;;
9888;SDS011;4983;42.112;24.738;2023-09-18T11:28:33;3.37;;;1.90;;
9888;SDS011;4983;42.112;24.738;2023-09-18T11:31:00;11.63;;;2.80;;
9888;SDS011;4983;42.112;24.738;2023-09-18T11:33:37;7.03;;;3.00;;
9888;SDS011;4983;42.112;24.738;2023-09-18T11:36:06;7.00;;;2.30;;
9888;SDS011;4983;42.112;24.738;2023-09-18T11:41:19;2.10;;;1.90;;
9888;SDS011;4983;42.112;24.738;2023-09-18T11:43:50;2.20;;;1.93;;
9888;SDS011;4983;42.112;24.738;2023-09-18T11:46:18;8.40;;;2.10;;
9888;SDS011;4983;42.112;24.738;2023-09-18T11:48:48;2.10;;;1.77;;
9888;SDS011;4983;42.112;24.738;2023-09-18T11:51:22;2.27;;;1.83;;
9888;SDS011;4983;42.112;24.738;2023-09-18T11:53:54;2.73;;;2.00;;
9888;SDS011;4983;42.112;24.738;2023-09-18T11:56:23;2.50;;;2.00;;
9888;SDS011;4983;42.112;24.738;2023-09-18T11:58:51;2.80;;;2.10;;
9888;SDS011;4983;42.112;24.738;2023-09-18T12:01:20;6.23;;;2.07;;
9888;SDS011;4983;42.112;24.738;2023-09-18T12:03:54;5.27;;;2.10;;
9888;SDS011;4983;42.112;24.738;2023-09-18T12:06:21;3.97;;;2.47;;
9888;SDS011;4983;42.112;24.738;2023-09-18T12:08:48;7.10;;;2.40;;
9888;SDS011;4983;42.112;24.738;2023-09-18T12:11:18;4.43;;;2.20;;
9888;SDS011;4983;42.112;24.738;2023-09-18T12:13:46;3.73;;;2.10;;
9888;SDS011;4983;42.112;24.738;2023-09-18T12:16:13;2.73;;;1.90;;
9888;SDS011;4983;42.112;24.738;2023-09-18T12:18:44;2.30;;;2.10;;
9888;SDS011;4983;42.112;24.738;2023-09-18T12:21:14;3.57;;;2.20;;
9888;SDS011;4983;42.112;24.738;2023-09-18T12:23:43;4.33;;;2.30;;
9888;SDS011;4983;42.112;24.738;2023-09-18T12:26:11;5.73;;;2.50;;
9888;SDS011;4983;42.112;24.738;2023-09-18T12:28:40;3.37;;;2.20;;
9888;SDS011;4983;42.112;24.738;2023-09-18T12:31:09;5.57;;;2.30;;
9888;SDS011;4983;42.112;24.738;2023-09-18T12:33:37;2.07;;;1.83;;
9888;SDS011;4983;42.112;24.738;2023-09-18T12:36:06;10.40;;;2.60;;
9888;SDS011;4983;42.112;24.738;2023-09-18T12:38:35;11.70;;;3.23;;
9888;SDS011;4983;42.112;24.738;2023-09-18T12:41:04;4.77;;;2.30;;
9888;SDS011;4983;42.112;24.738;2023-09-18T12:43:35;8.93;;;3.03;;
9888;SDS011;4983;42.112;24.738;2023-09-18T12:46:04;4.00;;;1.93;;
9888;SDS011;4983;42.112;24.738;2023-09-18T12:48:32;3.00;;;2.00;;
9888;SDS011;4983;42.112;24.738;2023-09-18T12:51:02;2.23;;;1.93;;
9888;SDS011;4983;42.112;24.738;2023-09-18T12:53:30;4.40;;;2.13;;
9888;SDS011;4983;42.112;24.738;2023-09-18T12:56:09;4.67;;;2.10;;
9888;SDS011;4983;42.112;24.738;2023-09-18T12:58:37;3.37;;;2.10;;
9888;SDS011;4983;42.112;24.738;2023-09-18T13:01:05;2.07;;;1.87;;
9888;SDS011;4983;42.112;24.738;2023-09-18T13:03:35;2.40;;;2.20;;
9888;SDS011;4983;42.112;24.738;2023-09-18T13:06:08;5.30;;;2.13;;
9888;SDS011;4983;42.112;24.738;2023-09-18T13:08:36;13.27;;;2.80;;
9888;SDS011;4983;42.112;24.738;2023-09-18T13:11:04;4.80;;;2.10;;
9888;SDS011;4983;42.112;24.738;2023-09-18T13:13:33;7.50;;;2.20;;
9888;SDS011;4983;42.112;24.738;2023-09-18T13:16:00;1.70;;;1.60;;
9888;SDS011;4983;42.112;24.738;2023-09-18T13:18:32;3.43;;;2.17;;
9888;SDS011;4983;42.112;24.738;2023-09-18T13:21:00;3.57;;;1.90;;
9888;SDS011;4983;42.112;24.738;2023-09-18T13:23:30;4.60;;;2.30;;
9888;SDS011;4983;42.112;24.738;2023-09-18T13:26:00;2.30;;;2.00;;
9888;SDS011;4983;42.112;24.738;2023-09-18T13:28:29;2.93;;;2.07;;
9888;SDS011;4983;42.112;24.738;2023-09-18T13:30:59;5.67;;;2.30;;
9888;SDS011;4983;42.112;24.738;2023-09-18T13:33:30;7.83;;;3.00;;
9888;SDS011;4983;42.112;24.738;2023-09-18T13:35:57;2.90;;;2.17;;
9888;SDS011;4983;42.112;24.738;2023-09-18T13:38:24;4.30;;;2.20;;
9888;SDS011;4983;42.112;24.738;2023-09-18T13:40:51;2.83;;;1.90;;
9888;SDS011;4983;42.112;24.738;2023-09-18T13:43:20;2.90;;;1.87;;
9888;SDS011;4983;42.112;24.738;2023-09-18T13:45:48;2.70;;;2.20;;
9888;SDS011;4983;42.112;24.738;2023-09-18T13:48:19;3.30;;;2.10;;
9888;SDS011;4983;42.112;24.738;2023-09-18T13:50:48;3.00;;;2.00;;
9888;SDS011;4983;42.112;24.738;2023-09-18T13:53:17;6.33;;;2.80;;
9888;SDS011;4983;42.112;24.738;2023-09-18T13:55:44;6.93;;;2.40;;
9888;SDS011;4983;42.112;24.738;2023-09-18T13:58:12;9.73;;;2.30;;
9888;SDS011;4983;42.112;24.738;2023-09-18T14:00:39;2.43;;;1.90;;
9888;SDS011;4983;42.112;24.738;2023-09-18T14:03:09;2.37;;;2.00;;
9888;SDS011;4983;42.112;24.738;2023-09-18T14:05:41;4.37;;;2.33;;
9888;SDS011;4983;42.112;24.738;2023-09-18T14:08:08;2.80;;;1.63;;
9888;SDS011;4983;42.112;24.738;2023-09-18T14:10:35;4.07;;;2.10;;
9888;SDS011;4983;42.112;24.738;2023-09-18T14:13:05;2.47;;;1.93;;
9888;SDS011;4983;42.112;24.738;2023-09-18T14:15:32;2.23;;;1.87;;
9888;SDS011;4983;42.112;24.738;2023-09-18T14:17:59;3.00;;;2.00;;
9888;SDS011;4983;42.112;24.738;2023-09-18T14:20:27;4.57;;;1.80;;
9888;SDS011;4983;42.112;24.738;2023-09-18T14:22:55;3.70;;;2.10;;
9888;SDS011;4983;42.112;24.738;2023-09-18T14:25:24;3.17;;;2.20;;
9888;SDS011;4983;42.112;24.738;2023-09-18T14:27:51;3.50;;;2.17;;
9888;SDS011;4983;42.112;24.738;2023-09-18T14:30:18;6.23;;;2.57;;
9888;SDS011;4983;42.112;24.738;2023-09-18T14:32:45;8.37;;;2.17;;
9888;SDS011;4983;42.112;24.738;2023-09-18T14:35:12;2.37;;;1.80;;
9888;SDS011;4983;42.112;24.738;2023-09-18T14:37:39;3.47;;;2.10;;
9888;SDS011;4983;42.112;24.738;2023-09-18T14:40:08;5.50;;;2.10;;
9888;SDS011;4983;42.112;24.738;2023-09-18T14:42:37;6.03;;;2.43;;
9888;SDS011;4983;42.112;24.738;2023-09-18T14:45:04;6.60;;;2.43;;
9888;SDS011;4983;42.112;24.738;2023-09-18T14:47:31;5.47;;;2.47;;
9888;SDS011;4983;42.112;24.738;2023-09-18T14:49:58;2.30;;;2.07;;
9888;SDS011;4983;42.112;24.738;2023-09-18T14:52:26;5.33;;;2.10;;
9888;SDS011;4983;42.112;24.738;2023-09-18T14:54:53;7.90;;;3.13;;
9888;SDS011;4983;42.112;24.738;2023-09-18T14:57:22;3.13;;;2.13;;
9888;SDS011;4983;42.112;24.738;2023-09-18T14:59:49;7.43;;;2.50;;
9888;SDS011;4983;42.112;24.738;2023-09-18T15:02:16;6.60;;;2.13;;
9888;SDS011;4983;42.112;24.738;2023-09-18T15:04:43;2.50;;;2.30;;
9888;SDS011;4983;42.112;24.738;2023-09-18T15:07:10;10.10;;;2.87;;
9888;SDS011;4983;42.112;24.738;2023-09-18T15:09:37;11.50;;;2.40;;
9888;SDS011;4983;42.112;24.738;2023-09-18T15:12:04;5.40;;;2.73;;
9888;SDS011;4983;42.112;24.738;2023-09-18T15:14:34;6.93;;;2.67;;
9888;SDS011;4983;42.112;24.738;2023-09-18T15:17:02;6.40;;;2.87;;